Historyczne dane pomiarowe

Dodano dane terminowe – wersja testowa.

Dane z okresu 1951-2019

Wersja bazy: 1.34 [2019-03-16, lista zmian], aktualizacja planowana na 2019-04-15

Dane meteo z obszaru Polski uzyskane na podstawie danych udostępnionych przez Instytut Meteorologii i Gospodarki Wodnej – Państwowy Instytut Badawczy.

 

Wybierz Datę:    

       

TemperaturaWilgotnośćWiatrCiśnienieOpadyŚniegCzas trwania zjawisk
 Stacja t tx tn tng RH VA  wxwx mslp ppp RRR   cm mm wxwxwxwxwxwxwx
1983-08-14 12.0 15.5 9.8- 83.3- 6.3 2.0---- 0.1------------
1983-08-13 13.8 19.5 12.2- 86.3- 6.3 1.3---- 5.9------------
1983-08-12 17.4 24.2 12.3- 81.0- 2.0 0.0---- 0.0------------
1983-08-11 16.6 22.2 13.0- 91.3- 4.7 0.3---- 6.7------------
1983-08-10 17.1 23.0 11.3- 79.3- 3.7 0.7---- 3.7------------
1983-08-09 16.6 24.0 12.5- 84.0- 5.3 0.7---- 0.0------------
1983-08-08 17.0 21.2 12.3- 86.0- 5.7 2.0---- 6.4------------
1983-08-07 13.7 16.8 12.3- 94.3- 8.0 0.0---- 16.8------------
1983-08-06 14.1 19.3 10.6- 81.3- 6.7 0.0---- 2.0------------
1983-08-05 11.6 14.9 9.5- 88.3- 8.0 0.0---- 0.2------------
1983-08-04 11.9 17.8 10.7- 89.8- 8.0 0.0---- 4.6------------
1983-08-03 19.1 25.4 15.6- 81.0- 4.7 0.3---- 10.8------------
1983-08-02 18.6 28.8 12.4- 80.0- 4.3 0.3---- 30.8------------
1983-08-01 18.4 27.9 8.0- 64.0- 0.0 1.3---- 0.0------------
1983-07-31 15.4 22.1 8.6- 77.5- 0.0 0.7---- 0.0------------
1983-07-30 16.7 20.7 14.5- 79.8- 5.3 1.3---- 0.0------------
1983-07-29 18.4 22.9 13.0- 71.8- 4.3 0.7---- 0.0------------
1983-07-28 20.3 27.0 14.8- 70.8- 4.3 0.7---- 0.0------------
1983-07-27 20.3 29.9 11.6- 72.3- 0.3 0.0---- 0.0------------
1983-07-26 18.1 24.8 12.8- 64.8- 3.3 0.7---- 0.0------------
1983-07-25 15.6 19.4 12.0- 71.8- 4.0 1.7---- 0.0------------
1983-07-24 16.1 21.2 11.4- 72.8- 4.0 2.0---- 1.5------------
1983-07-23 15.8 19.9 12.3- 76.8- 6.0 1.7---- 0.0------------
1983-07-22 10.7 14.4 5.8- 84.8- 8.0 1.3---- 7.0------------
1983-07-21 11.3 15.6 8.8- 71.8- 3.7 2.0---- 0.1------------
1983-07-20 17.0 25.3 13.6- 78.3- 7.0 4.0---- 2.2------------
1983-07-19 20.2 29.1 13.1- 73.8- 3.3 1.0---- 0.0------------
1983-07-18 19.6 28.4 12.0- 72.8- 0.7 0.0---- 0.0------------
1983-07-17 18.7 25.1 12.4- 74.3- 1.7 0.3---- 1.4------------
1983-07-16 17.8 26.2 10.0- 74.0- 0.7 0.3---- 0.0------------
1983-07-15 18.2 22.5 13.9- 76.5- 1.3 1.0---- 0.0------------
1983-07-14 15.6 18.0 13.9- 92.5- 8.0 0.0---- 35.0------------
1983-07-13 16.4 21.3 13.2- 82.8- 7.3 0.0---- 37.8------------
1983-07-12 16.5 21.0 12.0- 85.5- 7.0 2.0---- 5.0------------
1983-07-11 14.7 23.6 12.1- 91.5- 7.3 2.0---- 23.2------------
1983-07-10 19.7 26.1 11.0- 63.3- 2.7 1.0---- 5.5------------
1983-07-09 17.2 25.0 7.4- 71.5- 0.7 0.7---- 0.0------------
1983-07-08 17.6 24.5 8.8- 66.5- 0.0 0.7---- 0.0------------
1983-07-07 19.1 26.3 11.3- 72.0- 0.0 0.7---- 0.0------------
1983-07-06 18.4 25.9 10.8- 75.3- 0.0 0.3---- 0.0------------
1983-07-05 17.1 25.0 9.3- 75.0- 0.3 0.3---- 0.0------------
1983-07-04 16.2 23.8 8.5- 73.3- 1.0 0.7---- 0.0------------
1983-07-03 17.8 21.6 13.3- 74.0- 2.3 1.0---- 0.0------------
1983-07-02 17.5 21.1 14.6- 77.0- 6.3 1.0---- 1.9------------
1983-07-01 16.9 24.6 8.3- 75.3- 3.3 1.0---- 0.0------------
1983-06-30 14.1 22.0 4.6- 75.0- 1.7 1.7---- 0.0------------
1983-06-29 13.8 18.0 10.2- 70.8- 3.7 1.3---- 0.0------------
1983-06-28 14.4 20.0 12.6- 90.3- 7.7 0.7---- 4.9------------
1983-06-27 17.1 23.9 12.2- 78.8- 6.7 0.3---- 4.0------------
1983-06-26 15.8 21.5 12.2- 89.0- 5.3 0.3---- 15.4------------
1983-06-25 16.9 25.9 9.0- 71.3- 1.7 0.7---- 0.0------------
1983-06-24 15.2 25.0 5.6- 71.5- 1.0 0.3---- 0.0------------
1983-06-23 11.8 19.5 3.3- 71.0- 0.0 1.0---- 0.0------------
1983-06-22 14.1 20.8 10.8- 64.8- 1.7 2.7---- 0.0------------
1983-06-21 17.9 22.8 14.0- 75.8- 4.3 1.0---- 0.0------------
1983-06-20 15.6 17.4 14.0- 93.3- 6.7 1.0---- 4.4------------
1983-06-19 12.9 15.5 10.3- 95.5- 8.0 0.0---- 82.1------------
1983-06-18 10.2 12.2 8.6- 93.5- 8.0 1.7---- 44.0------------
1983-06-17 10.3 12.5 8.8- 85.5- 8.0 2.3---- 28.7------------
1983-06-16 9.6 13.3 7.8- 93.8- 8.0 1.7---- 14.1------------
3405.2 ms

 

Źródłem pochodzenia danych jest Instytut Meteorologii i Gospodarki Wodnej – Państwowy Instytut Badawczy. Dane Instytutu Meteorologii i Gospodarki Wodnej – Państwowego Instytutu Badawczego zostały przetworzone.

Dane źródłowe można odnaleźć na stronie https://dane.imgw.pl